sensor_id;sensor_type;location;lat;lon;timestamp;temperature;humidity
12957;DHT22;6543;48.836;10.092;2024-03-02T00:00:51;9.10;99.90
12957;DHT22;6543;48.836;10.092;2024-03-02T00:03:19;9.10;99.90
12957;DHT22;6543;48.836;10.092;2024-03-02T00:05:49;6.80;99.90
12957;DHT22;6543;48.836;10.092;2024-03-02T00:08:23;8.80;99.90
12957;DHT22;6543;48.836;10.092;2024-03-02T00:10:51;6.80;99.90
12957;DHT22;6543;48.836;10.092;2024-03-02T00:13:21;6.80;99.90
12957;DHT22;6543;48.836;10.092;2024-03-02T00:15:52;9.30;99.90
12957;DHT22;6543;48.836;10.092;2024-03-02T00:18:20;8.40;99.90
12957;DHT22;6543;48.836;10.092;2024-03-02T00:20:47;7.40;99.90
12957;DHT22;6543;48.836;10.092;2024-03-02T00:23:16;6.90;99.90
12957;DHT22;6543;48.836;10.092;2024-03-02T00:25:45;6.80;99.90
12957;DHT22;6543;48.836;10.092;2024-03-02T00:28:16;6.40;99.90
12957;DHT22;6543;48.836;10.092;2024-03-02T00:31:05;6.80;99.90
12957;DHT22;6543;48.836;10.092;2024-03-02T00:33:34;6.80;99.90
12957;DHT22;6543;48.836;10.092;2024-03-02T00:36:01;7.20;99.90
12957;DHT22;6543;48.836;10.092;2024-03-02T00:38:29;6.80;99.90
12957;DHT22;6543;48.836;10.092;2024-03-02T00:40:58;7.10;99.90
12957;DHT22;6543;48.836;10.092;2024-03-02T00:43:47;6.70;99.90
12957;DHT22;6543;48.836;10.092;2024-03-02T00:46:18;6.90;99.90
12957;DHT22;6543;48.836;10.092;2024-03-02T00:48:53;6.70;99.90
12957;DHT22;6543;48.836;10.092;2024-03-02T00:51:21;6.70;99.90
12957;DHT22;6543;48.836;10.092;2024-03-02T00:53:48;7.30;99.90
12957;DHT22;6543;48.836;10.092;2024-03-02T00:56:16;6.70;99.90
12957;DHT22;6543;48.836;10.092;2024-03-02T00:58:43;8.40;99.90
12957;DHT22;6543;48.836;10.092;2024-03-02T01:01:10;6.60;99.90
12957;DHT22;6543;48.836;10.092;2024-03-02T01:03:38;6.60;99.90
12957;DHT22;6543;48.836;10.092;2024-03-02T01:06:05;8.80;99.90
12957;DHT22;6543;48.836;10.092;2024-03-02T01:08:33;6.60;99.90
12957;DHT22;6543;48.836;10.092;2024-03-02T01:11:00;6.60;99.90
12957;DHT22;6543;48.836;10.092;2024-03-02T01:13:27;6.60;99.90
12957;DHT22;6543;48.836;10.092;2024-03-02T01:15:54;7.20;99.90
12957;DHT22;6543;48.836;10.092;2024-03-02T01:18:21;7.70;99.90
12957;DHT22;6543;48.836;10.092;2024-03-02T01:20:50;6.60;99.90
12957;DHT22;6543;48.836;10.092;2024-03-02T01:23:18;6.60;99.90
12957;DHT22;6543;48.836;10.092;2024-03-02T01:25:46;6.60;99.90
12957;DHT22;6543;48.836;10.092;2024-03-02T01:28:13;6.60;99.90
12957;DHT22;6543;48.836;10.092;2024-03-02T01:30:40;6.90;99.90
12957;DHT22;6543;48.836;10.092;2024-03-02T01:33:08;8.50;99.90
12957;DHT22;6543;48.836;10.092;2024-03-02T01:35:38;6.60;99.90
12957;DHT22;6543;48.836;10.092;2024-03-02T01:38:09;9.20;99.90
12957;DHT22;6543;48.836;10.092;2024-03-02T01:40:51;7.60;99.90
12957;DHT22;6543;48.836;10.092;2024-03-02T01:43:20;7.40;99.90
12957;DHT22;6543;48.836;10.092;2024-03-02T01:46:00;7.60;99.90
12957;DHT22;6543;48.836;10.092;2024-03-02T01:48:30;6.40;99.90
12957;DHT22;6543;48.836;10.092;2024-03-02T01:51:00;6.50;99.90
12957;DHT22;6543;48.836;10.092;2024-03-02T01:53:40;7.60;99.90
12957;DHT22;6543;48.836;10.092;2024-03-02T01:56:10;6.30;99.90
12957;DHT22;6543;48.836;10.092;2024-03-02T01:58:40;5.30;99.90
12957;DHT22;6543;48.836;10.092;2024-03-02T02:01:10;8.40;99.90
12957;DHT22;6543;48.836;10.092;2024-03-02T02:03:45;6.80;99.90
12957;DHT22;6543;48.836;10.092;2024-03-02T02:06:12;7.70;99.90
12957;DHT22;6543;48.836;10.092;2024-03-02T02:08:48;9.50;99.90
12957;DHT22;6543;48.836;10.092;2024-03-02T02:11:17;7.90;99.90
12957;DHT22;6543;48.836;10.092;2024-03-02T02:13:44;8.20;99.90
12957;DHT22;6543;48.836;10.092;2024-03-02T02:16:20;8.80;99.90
12957;DHT22;6543;48.836;10.092;2024-03-02T02:18:51;6.60;99.90
12957;DHT22;6543;48.836;10.092;2024-03-02T02:21:24;8.90;99.90
12957;DHT22;6543;48.836;10.092;2024-03-02T02:23:53;6.40;99.90
12957;DHT22;6543;48.836;10.092;2024-03-02T02:26:22;9.00;99.90
12957;DHT22;6543;48.836;10.092;2024-03-02T02:29:00;9.10;99.90
12957;DHT22;6543;48.836;10.092;2024-03-02T02:31:41;6.90;99.90
12957;DHT22;6543;48.836;10.092;2024-03-02T02:34:18;6.50;99.90
12957;DHT22;6543;48.836;10.092;2024-03-02T02:36:50;6.50;99.90
12957;DHT22;6543;48.836;10.092;2024-03-02T02:39:21;6.50;99.90
12957;DHT22;6543;48.836;10.092;2024-03-02T02:41:53;8.60;99.90
12957;DHT22;6543;48.836;10.092;2024-03-02T02:44:27;6.50;99.90
12957;DHT22;6543;48.836;10.092;2024-03-02T02:46:56;8.40;99.90
12957;DHT22;6543;48.836;10.092;2024-03-02T02:49:28;6.60;99.90
12957;DHT22;6543;48.836;10.092;2024-03-02T02:52:00;7.50;99.90
12957;DHT22;6543;48.836;10.092;2024-03-02T02:54:36;9.30;99.90
12957;DHT22;6543;48.836;10.092;2024-03-02T02:57:07;9.30;99.90
12957;DHT22;6543;48.836;10.092;2024-03-02T02:59:38;8.60;99.90
12957;DHT22;6543;48.836;10.092;2024-03-02T03:02:12;7.80;99.90
12957;DHT22;6543;48.836;10.092;2024-03-02T03:04:42;6.70;99.90
12957;DHT22;6543;48.836;10.092;2024-03-02T03:07:11;6.40;99.90
12957;DHT22;6543;48.836;10.092;2024-03-02T03:09:37;6.30;99.90
12957;DHT22;6543;48.836;10.092;2024-03-02T03:12:05;6.30;99.90
12957;DHT22;6543;48.836;10.092;2024-03-02T03:14:32;6.30;99.90
12957;DHT22;6543;48.836;10.092;2024-03-02T03:16:59;6.30;99.90
12957;DHT22;6543;48.836;10.092;2024-03-02T03:19:26;6.30;99.90
12957;DHT22;6543;48.836;10.092;2024-03-02T03:21:53;6.30;99.90
12957;DHT22;6543;48.836;10.092;2024-03-02T03:24:21;6.30;99.90
12957;DHT22;6543;48.836;10.092;2024-03-02T03:26:48;6.30;99.90
12957;DHT22;6543;48.836;10.092;2024-03-02T03:29:14;6.30;99.90
12957;DHT22;6543;48.836;10.092;2024-03-02T03:31:41;6.30;99.90
12957;DHT22;6543;48.836;10.092;2024-03-02T03:34:08;6.30;99.90
12957;DHT22;6543;48.836;10.092;2024-03-02T03:36:35;6.30;99.90
12957;DHT22;6543;48.836;10.092;2024-03-02T03:39:03;6.30;99.90
12957;DHT22;6543;48.836;10.092;2024-03-02T03:41:33;6.30;99.90
12957;DHT22;6543;48.836;10.092;2024-03-02T03:43:59;7.10;99.90
12957;DHT22;6543;48.836;10.092;2024-03-02T03:46:26;6.30;99.90
12957;DHT22;6543;48.836;10.092;2024-03-02T03:48:53;6.60;99.90
12957;DHT22;6543;48.836;10.092;2024-03-02T03:51:21;6.30;99.90
12957;DHT22;6543;48.836;10.092;2024-03-02T03:53:48;6.30;99.90
12957;DHT22;6543;48.836;10.092;2024-03-02T03:56:15;6.30;99.90
12957;DHT22;6543;48.836;10.092;2024-03-02T03:58:43;6.30;99.90
12957;DHT22;6543;48.836;10.092;2024-03-02T04:01:10;6.20;99.90
12957;DHT22;6543;48.836;10.092;2024-03-02T04:03:38;6.20;99.90
12957;DHT22;6543;48.836;10.092;2024-03-02T04:06:04;6.20;99.90
12957;DHT22;6543;48.836;10.092;2024-03-02T04:08:31;6.20;99.90
12957;DHT22;6543;48.836;10.092;2024-03-02T04:10:58;6.20;99.90
12957;DHT22;6543;48.836;10.092;2024-03-02T04:13:25;6.20;99.90
12957;DHT22;6543;48.836;10.092;2024-03-02T04:15:53;6.20;99.90
12957;DHT22;6543;48.836;10.092;2024-03-02T04:18:20;6.20;99.90
12957;DHT22;6543;48.836;10.092;2024-03-02T04:20:46;6.10;99.90
12957;DHT22;6543;48.836;10.092;2024-03-02T04:23:12;6.10;99.90
12957;DHT22;6543;48.836;10.092;2024-03-02T04:25:39;6.10;99.90
12957;DHT22;6543;48.836;10.092;2024-03-02T04:28:06;6.00;99.90
12957;DHT22;6543;48.836;10.092;2024-03-02T04:30:33;6.00;99.90
12957;DHT22;6543;48.836;10.092;2024-03-02T04:33:01;6.00;99.90
12957;DHT22;6543;48.836;10.092;2024-03-02T04:35:29;5.90;99.90
12957;DHT22;6543;48.836;10.092;2024-03-02T04:37:56;5.90;99.90
12957;DHT22;6543;48.836;10.092;2024-03-02T04:40:22;5.90;99.90
12957;DHT22;6543;48.836;10.092;2024-03-02T04:42:49;5.80;99.90
12957;DHT22;6543;48.836;10.092;2024-03-02T04:45:16;5.80;99.90
12957;DHT22;6543;48.836;10.092;2024-03-02T04:47:43;5.90;99.90
12957;DHT22;6543;48.836;10.092;2024-03-02T04:50:11;5.90;99.90
12957;DHT22;6543;48.836;10.092;2024-03-02T04:52:37;5.80;99.90
12957;DHT22;6543;48.836;10.092;2024-03-02T04:55:05;5.80;99.90
12957;DHT22;6543;48.836;10.092;2024-03-02T04:57:55;5.80;99.90
12957;DHT22;6543;48.836;10.092;2024-03-02T05:00:21;5.80;99.90
12957;DHT22;6543;48.836;10.092;2024-03-02T05:02:48;5.80;99.90
12957;DHT22;6543;48.836;10.092;2024-03-02T05:05:16;5.80;99.90
12957;DHT22;6543;48.836;10.092;2024-03-02T05:07:43;5.80;99.90
12957;DHT22;6543;48.836;10.092;2024-03-02T05:10:10;6.20;99.90
12957;DHT22;6543;48.836;10.092;2024-03-02T05:12:37;5.80;99.90
12957;DHT22;6543;48.836;10.092;2024-03-02T05:15:18;5.80;99.90
12957;DHT22;6543;48.836;10.092;2024-03-02T05:17:45;5.80;99.90
12957;DHT22;6543;48.836;10.092;2024-03-02T05:20:11;5.80;99.90
12957;DHT22;6543;48.836;10.092;2024-03-02T05:22:40;5.80;99.90
12957;DHT22;6543;48.836;10.092;2024-03-02T05:25:07;5.80;99.90
12957;DHT22;6543;48.836;10.092;2024-03-02T05:27:35;5.70;99.90
12957;DHT22;6543;48.836;10.092;2024-03-02T05:30:02;5.70;99.90
12957;DHT22;6543;48.836;10.092;2024-03-02T05:32:29;5.70;99.90
12957;DHT22;6543;48.836;10.092;2024-03-02T05:34:55;5.90;99.90
12957;DHT22;6543;48.836;10.092;2024-03-02T05:37:22;6.40;99.90
12957;DHT22;6543;48.836;10.092;2024-03-02T05:39:50;5.70;99.90
12957;DHT22;6543;48.836;10.092;2024-03-02T05:42:17;5.60;99.90
12957;DHT22;6543;48.836;10.092;2024-03-02T05:44:44;5.70;99.90
12957;DHT22;6543;48.836;10.092;2024-03-02T05:47:11;5.60;99.90
12957;DHT22;6543;48.836;10.092;2024-03-02T05:49:38;5.70;99.90
12957;DHT22;6543;48.836;10.092;2024-03-02T05:52:05;5.70;99.90
12957;DHT22;6543;48.836;10.092;2024-03-02T05:54:32;5.70;99.90
12957;DHT22;6543;48.836;10.092;2024-03-02T05:57:00;5.80;99.90
12957;DHT22;6543;48.836;10.092;2024-03-02T05:59:42;5.70;99.90
12957;DHT22;6543;48.836;10.092;2024-03-02T06:02:09;6.20;99.90
12957;DHT22;6543;48.836;10.092;2024-03-02T06:04:36;5.70;99.90
12957;DHT22;6543;48.836;10.092;2024-03-02T06:07:02;5.80;99.90
12957;DHT22;6543;48.836;10.092;2024-03-02T06:09:29;5.70;99.90
12957;DHT22;6543;48.836;10.092;2024-03-02T06:11:56;5.70;99.90
12957;DHT22;6543;48.836;10.092;2024-03-02T06:14:24;6.10;99.90
12957;DHT22;6543;48.836;10.092;2024-03-02T06:16:51;5.70;99.90
12957;DHT22;6543;48.836;10.092;2024-03-02T06:19:18;5.80;99.90
12957;DHT22;6543;48.836;10.092;2024-03-02T06:21:44;5.70;99.90
12957;DHT22;6543;48.836;10.092;2024-03-02T06:24:11;5.70;99.90
12957;DHT22;6543;48.836;10.092;2024-03-02T06:26:37;5.80;99.90
12957;DHT22;6543;48.836;10.092;2024-03-02T06:29:05;5.80;99.90
12957;DHT22;6543;48.836;10.092;2024-03-02T06:31:33;5.90;99.90
12957;DHT22;6543;48.836;10.092;2024-03-02T06:33:59;5.80;99.90
12957;DHT22;6543;48.836;10.092;2024-03-02T06:36:26;5.80;99.90
12957;DHT22;6543;48.836;10.092;2024-03-02T06:38:53;5.90;99.90
12957;DHT22;6543;48.836;10.092;2024-03-02T06:41:20;5.80;99.90
12957;DHT22;6543;48.836;10.092;2024-03-02T06:43:46;6.50;99.90
12957;DHT22;6543;48.836;10.092;2024-03-02T06:46:13;5.90;99.90
12957;DHT22;6543;48.836;10.092;2024-03-02T06:48:42;5.90;99.90
12957;DHT22;6543;48.836;10.092;2024-03-02T06:51:09;6.00;99.90
12957;DHT22;6543;48.836;10.092;2024-03-02T06:53:36;6.00;99.90
12957;DHT22;6543;48.836;10.092;2024-03-02T06:56:03;6.10;99.90
12957;DHT22;6543;48.836;10.092;2024-03-02T06:58:30;6.10;99.90
12957;DHT22;6543;48.836;10.092;2024-03-02T07:00:57;6.10;99.90
12957;DHT22;6543;48.836;10.092;2024-03-02T07:03:25;6.10;99.90
12957;DHT22;6543;48.836;10.092;2024-03-02T07:05:54;6.20;99.90
12957;DHT22;6543;48.836;10.092;2024-03-02T07:08:20;6.10;99.90
12957;DHT22;6543;48.836;10.092;2024-03-02T07:10:47;6.20;99.90
12957;DHT22;6543;48.836;10.092;2024-03-02T07:13:14;5.40;99.90
12957;DHT22;6543;48.836;10.092;2024-03-02T07:15:41;6.20;99.90
12957;DHT22;6543;48.836;10.092;2024-03-02T07:18:31;6.30;99.90
12957;DHT22;6543;48.836;10.092;2024-03-02T07:21:00;6.40;99.90
12957;DHT22;6543;48.836;10.092;2024-03-02T07:23:27;6.50;99.90
12957;DHT22;6543;48.836;10.092;2024-03-02T07:25:53;6.60;99.90
12957;DHT22;6543;48.836;10.092;2024-03-02T07:28:21;6.60;99.90
12957;DHT22;6543;48.836;10.092;2024-03-02T07:30:57;6.70;99.90
12957;DHT22;6543;48.836;10.092;2024-03-02T07:33:25;6.70;99.90
12957;DHT22;6543;48.836;10.092;2024-03-02T07:35:52;6.90;99.90
12957;DHT22;6543;48.836;10.092;2024-03-02T07:38:20;6.70;99.90
12957;DHT22;6543;48.836;10.092;2024-03-02T07:40:47;6.80;99.90
12957;DHT22;6543;48.836;10.092;2024-03-02T07:43:16;6.90;99.90
12957;DHT22;6543;48.836;10.092;2024-03-02T07:45:43;7.10;99.90
12957;DHT22;6543;48.836;10.092;2024-03-02T07:48:10;7.30;99.90
12957;DHT22;6543;48.836;10.092;2024-03-02T07:50:37;7.30;99.90
12957;DHT22;6543;48.836;10.092;2024-03-02T07:53:05;7.40;99.90
12957;DHT22;6543;48.836;10.092;2024-03-02T07:55:34;7.50;99.90
12957;DHT22;6543;48.836;10.092;2024-03-02T07:58:01;7.80;99.90
12957;DHT22;6543;48.836;10.092;2024-03-02T08:00:28;7.50;99.90
12957;DHT22;6543;48.836;10.092;2024-03-02T08:02:55;7.40;99.90
12957;DHT22;6543;48.836;10.092;2024-03-02T08:05:22;7.50;99.90
12957;DHT22;6543;48.836;10.092;2024-03-02T08:07:49;7.50;99.90
12957;DHT22;6543;48.836;10.092;2024-03-02T08:10:18;7.50;99.90
12957;DHT22;6543;48.836;10.092;2024-03-02T08:12:46;7.70;99.90
12957;DHT22;6543;48.836;10.092;2024-03-02T08:15:13;7.80;99.90
12957;DHT22;6543;48.836;10.092;2024-03-02T08:17:40;8.10;99.90
12957;DHT22;6543;48.836;10.092;2024-03-02T08:20:11;7.80;99.90
12957;DHT22;6543;48.836;10.092;2024-03-02T08:22:38;7.70;99.90
12957;DHT22;6543;48.836;10.092;2024-03-02T08:25:05;7.70;99.90
12957;DHT22;6543;48.836;10.092;2024-03-02T08:27:33;7.80;99.90
12957;DHT22;6543;48.836;10.092;2024-03-02T08:30:01;7.90;99.90
12957;DHT22;6543;48.836;10.092;2024-03-02T08:32:31;8.10;99.90
12957;DHT22;6543;48.836;10.092;2024-03-02T08:35:00;8.10;99.90
12957;DHT22;6543;48.836;10.092;2024-03-02T08:37:27;9.20;99.90
12957;DHT22;6543;48.836;10.092;2024-03-02T08:39:54;8.50;99.90
12957;DHT22;6543;48.836;10.092;2024-03-02T08:42:21;8.60;99.90
12957;DHT22;6543;48.836;10.092;2024-03-02T08:44:48;8.60;99.90
12957;DHT22;6543;48.836;10.092;2024-03-02T08:47:17;8.60;99.90
12957;DHT22;6543;48.836;10.092;2024-03-02T08:49:43;9.00;99.90
12957;DHT22;6543;48.836;10.092;2024-03-02T08:52:10;9.70;99.90
12957;DHT22;6543;48.836;10.092;2024-03-02T08:54:37;8.80;99.90
12957;DHT22;6543;48.836;10.092;2024-03-02T08:57:05;9.00;99.90
12957;DHT22;6543;48.836;10.092;2024-03-02T08:59:33;9.10;99.90
12957;DHT22;6543;48.836;10.092;2024-03-02T09:02:00;9.10;99.90
12957;DHT22;6543;48.836;10.092;2024-03-02T09:04:28;9.00;99.90
12957;DHT22;6543;48.836;10.092;2024-03-02T09:06:58;9.10;99.90
12957;DHT22;6543;48.836;10.092;2024-03-02T09:09:29;9.20;99.90
12957;DHT22;6543;48.836;10.092;2024-03-02T09:15:19;7.70;99.90
12957;DHT22;6543;48.836;10.092;2024-03-02T09:18:01;9.70;99.90
12957;DHT22;6543;48.836;10.092;2024-03-02T09:20:32;9.00;99.90
12957;DHT22;6543;48.836;10.092;2024-03-02T09:22:59;9.10;99.90
12957;DHT22;6543;48.836;10.092;2024-03-02T09:25:28;11.60;99.90
12957;DHT22;6543;48.836;10.092;2024-03-02T09:27:57;9.30;99.90
12957;DHT22;6543;48.836;10.092;2024-03-02T09:30:40;9.90;99.90
12957;DHT22;6543;48.836;10.092;2024-03-02T09:33:14;9.70;99.90
12957;DHT22;6543;48.836;10.092;2024-03-02T09:35:59;9.70;99.90
12957;DHT22;6543;48.836;10.092;2024-03-02T09:38:38;9.70;99.90
12957;DHT22;6543;48.836;10.092;2024-03-02T09:41:06;9.00;99.90
12957;DHT22;6543;48.836;10.092;2024-03-02T09:43:33;9.90;99.90
12957;DHT22;6543;48.836;10.092;2024-03-02T09:46:08;12.30;99.90
12957;DHT22;6543;48.836;10.092;2024-03-02T09:48:48;10.30;99.90
12957;DHT22;6543;48.836;10.092;2024-03-02T09:51:19;10.50;99.90
12957;DHT22;6543;48.836;10.092;2024-03-02T09:54:07;11.60;99.90
12957;DHT22;6543;48.836;10.092;2024-03-02T09:57:04;9.90;99.90
12957;DHT22;6543;48.836;10.092;2024-03-02T09:59:48;12.90;99.90
12957;DHT22;6543;48.836;10.092;2024-03-02T10:02:23;13.20;99.90
12957;DHT22;6543;48.836;10.092;2024-03-02T10:05:09;13.40;99.90
12957;DHT22;6543;48.836;10.092;2024-03-02T10:07:40;11.40;99.90
12957;DHT22;6543;48.836;10.092;2024-03-02T10:10:16;11.30;99.90
12957;DHT22;6543;48.836;10.092;2024-03-02T10:13:06;11.70;99.90
12957;DHT22;6543;48.836;10.092;2024-03-02T10:15:38;12.90;99.90
12957;DHT22;6543;48.836;10.092;2024-03-02T10:18:26;13.90;99.90
12957;DHT22;6543;48.836;10.092;2024-03-02T10:20:54;12.80;99.90
12957;DHT22;6543;48.836;10.092;2024-03-02T10:23:23;11.90;99.90
12957;DHT22;6543;48.836;10.092;2024-03-02T10:25:51;12.00;99.90
12957;DHT22;6543;48.836;10.092;2024-03-02T10:28:22;10.00;99.90
12957;DHT22;6543;48.836;10.092;2024-03-02T10:30:51;12.20;99.90
12957;DHT22;6543;48.836;10.092;2024-03-02T10:33:20;13.90;99.90
12957;DHT22;6543;48.836;10.092;2024-03-02T10:35:49;11.40;99.90
12957;DHT22;6543;48.836;10.092;2024-03-02T10:38:17;12.30;99.90
12957;DHT22;6543;48.836;10.092;2024-03-02T10:40:51;12.20;99.90
12957;DHT22;6543;48.836;10.092;2024-03-02T10:43:21;12.90;99.90
12957;DHT22;6543;48.836;10.092;2024-03-02T10:45:49;12.10;99.90
12957;DHT22;6543;48.836;10.092;2024-03-02T10:48:17;12.30;99.90
12957;DHT22;6543;48.836;10.092;2024-03-02T10:50:44;13.30;99.90
12957;DHT22;6543;48.836;10.092;2024-03-02T10:53:12;12.40;99.90
12957;DHT22;6543;48.836;10.092;2024-03-02T10:55:39;12.50;99.90
12957;DHT22;6543;48.836;10.092;2024-03-02T10:58:12;14.20;99.90
12957;DHT22;6543;48.836;10.092;2024-03-02T11:00:44;12.70;99.90
12957;DHT22;6543;48.836;10.092;2024-03-02T11:03:14;14.10;99.90
12957;DHT22;6543;48.836;10.092;2024-03-02T11:05:44;12.50;99.90
12957;DHT22;6543;48.836;10.092;2024-03-02T11:08:18;10.10;99.90
12957;DHT22;6543;48.836;10.092;2024-03-02T11:10:51;12.40;99.90
12957;DHT22;6543;48.836;10.092;2024-03-02T11:13:24;14.10;99.90
12957;DHT22;6543;48.836;10.092;2024-03-02T11:16:06;12.40;99.90
12957;DHT22;6543;48.836;10.092;2024-03-02T11:18:39;12.40;99.90
12957;DHT22;6543;48.836;10.092;2024-03-02T11:21:07;12.40;99.90
12957;DHT22;6543;48.836;10.092;2024-03-02T11:23:38;12.40;99.90
12957;DHT22;6543;48.836;10.092;2024-03-02T11:26:21;10.30;99.90
12957;DHT22;6543;48.836;10.092;2024-03-02T11:28:51;13.90;99.90
12957;DHT22;6543;48.836;10.092;2024-03-02T11:31:19;12.30;99.90
12957;DHT22;6543;48.836;10.092;2024-03-02T11:33:51;13.90;99.90
12957;DHT22;6543;48.836;10.092;2024-03-02T11:36:18;12.40;99.90
12957;DHT22;6543;48.836;10.092;2024-03-02T11:38:45;13.40;99.90
12957;DHT22;6543;48.836;10.092;2024-03-02T11:41:13;12.10;99.90
12957;DHT22;6543;48.836;10.092;2024-03-02T11:43:42;12.30;99.90
12957;DHT22;6543;48.836;10.092;2024-03-02T11:46:11;12.60;99.90
12957;DHT22;6543;48.836;10.092;2024-03-02T11:48:45;12.60;99.90
12957;DHT22;6543;48.836;10.092;2024-03-02T11:51:17;11.60;99.90
12957;DHT22;6543;48.836;10.092;2024-03-02T11:53:47;12.70;99.90
12957;DHT22;6543;48.836;10.092;2024-03-02T11:56:16;12.90;99.90
12957;DHT22;6543;48.836;10.092;2024-03-02T11:58:44;14.60;99.90
12957;DHT22;6543;48.836;10.092;2024-03-02T12:01:17;12.90;99.90
12957;DHT22;6543;48.836;10.092;2024-03-02T12:03:58;12.70;99.90
12957;DHT22;6543;48.836;10.092;2024-03-02T12:06:29;12.60;99.90
12957;DHT22;6543;48.836;10.092;2024-03-02T12:08:58;12.70;99.90
12957;DHT22;6543;48.836;10.092;2024-03-02T12:11:26;12.80;99.90
12957;DHT22;6543;48.836;10.092;2024-03-02T12:13:55;12.70;99.90
12957;DHT22;6543;48.836;10.092;2024-03-02T12:16:25;12.70;99.90
12957;DHT22;6543;48.836;10.092;2024-03-02T12:18:56;12.90;99.90
12957;DHT22;6543;48.836;10.092;2024-03-02T12:21:23;12.70;99.90
12957;DHT22;6543;48.836;10.092;2024-03-02T12:23:51;12.80;99.90
12957;DHT22;6543;48.836;10.092;2024-03-02T12:26:18;12.90;99.90
12957;DHT22;6543;48.836;10.092;2024-03-02T12:28:50;12.90;99.90
12957;DHT22;6543;48.836;10.092;2024-03-02T12:31:19;13.60;99.90
12957;DHT22;6543;48.836;10.092;2024-03-02T12:33:55;13.00;99.90
12957;DHT22;6543;48.836;10.092;2024-03-02T12:36:26;11.00;99.90
12957;DHT22;6543;48.836;10.092;2024-03-02T12:38:56;13.10;99.90
12957;DHT22;6543;48.836;10.092;2024-03-02T12:41:26;14.80;99.90
12957;DHT22;6543;48.836;10.092;2024-03-02T12:43:54;13.30;99.90
12957;DHT22;6543;48.836;10.092;2024-03-02T12:46:32;13.00;99.90
12957;DHT22;6543;48.836;10.092;2024-03-02T12:49:09;15.00;99.90
12957;DHT22;6543;48.836;10.092;2024-03-02T12:51:38;15.70;99.90
12957;DHT22;6543;48.836;10.092;2024-03-02T12:54:10;14.30;99.90
12957;DHT22;6543;48.836;10.092;2024-03-02T12:56:38;13.50;99.90
12957;DHT22;6543;48.836;10.092;2024-03-02T12:59:05;11.10;99.90
12957;DHT22;6543;48.836;10.092;2024-03-02T13:01:32;14.50;99.90
12957;DHT22;6543;48.836;10.092;2024-03-02T13:03:59;13.20;99.90
12957;DHT22;6543;48.836;10.092;2024-03-02T13:06:28;13.20;99.90
12957;DHT22;6543;48.836;10.092;2024-03-02T13:08:57;14.30;99.90
12957;DHT22;6543;48.836;10.092;2024-03-02T13:11:25;14.10;99.90
12957;DHT22;6543;48.836;10.092;2024-03-02T13:13:52;14.30;99.90
12957;DHT22;6543;48.836;10.092;2024-03-02T13:16:19;13.10;99.90
12957;DHT22;6543;48.836;10.092;2024-03-02T13:18:55;13.20;99.90
12957;DHT22;6543;48.836;10.092;2024-03-02T13:21:22;13.20;99.90
12957;DHT22;6543;48.836;10.092;2024-03-02T13:23:54;13.00;99.90
12957;DHT22;6543;48.836;10.092;2024-03-02T13:26:28;13.10;99.90
12957;DHT22;6543;48.836;10.092;2024-03-02T13:28:56;13.10;99.90
12957;DHT22;6543;48.836;10.092;2024-03-02T13:31:23;13.10;99.90
12957;DHT22;6543;48.836;10.092;2024-03-02T13:33:51;14.50;99.90
12957;DHT22;6543;48.836;10.092;2024-03-02T13:36:21;13.00;99.90
12957;DHT22;6543;48.836;10.092;2024-03-02T13:38:54;13.50;99.90
12957;DHT22;6543;48.836;10.092;2024-03-02T13:41:23;13.20;99.90
12957;DHT22;6543;48.836;10.092;2024-03-02T13:43:53;13.00;99.90
12957;DHT22;6543;48.836;10.092;2024-03-02T13:46:26;13.20;99.90
12957;DHT22;6543;48.836;10.092;2024-03-02T13:49:00;13.40;99.90
12957;DHT22;6543;48.836;10.092;2024-03-02T13:51:28;11.60;99.90
12957;DHT22;6543;48.836;10.092;2024-03-02T13:54:15;15.70;99.90
12957;DHT22;6543;48.836;10.092;2024-03-02T13:56:42;16.00;99.90
12957;DHT22;6543;48.836;10.092;2024-03-02T13:59:27;15.20;99.90
12957;DHT22;6543;48.836;10.092;2024-03-02T14:02:00;13.30;99.90
12957;DHT22;6543;48.836;10.092;2024-03-02T14:04:39;13.40;99.90
12957;DHT22;6543;48.836;10.092;2024-03-02T14:07:14;12.30;99.90
12957;DHT22;6543;48.836;10.092;2024-03-02T14:10:01;13.10;99.90
12957;DHT22;6543;48.836;10.092;2024-03-02T14:12:42;12.60;99.90
12957;DHT22;6543;48.836;10.092;2024-03-02T14:15:15;13.60;99.90
12957;DHT22;6543;48.836;10.092;2024-03-02T14:17:45;15.60;99.90
12957;DHT22;6543;48.836;10.092;2024-03-02T14:20:12;13.40;99.90
12957;DHT22;6543;48.836;10.092;2024-03-02T14:22:39;13.30;99.90
12957;DHT22;6543;48.836;10.092;2024-03-02T14:25:08;15.70;99.90
12957;DHT22;6543;48.836;10.092;2024-03-02T14:27:35;15.40;99.90
12957;DHT22;6543;48.836;10.092;2024-03-02T14:30:02;14.00;99.90
12957;DHT22;6543;48.836;10.092;2024-03-02T14:32:31;13.30;99.90
12957;DHT22;6543;48.836;10.092;2024-03-02T14:34:58;13.20;99.90
12957;DHT22;6543;48.836;10.092;2024-03-02T14:37:27;13.30;99.90
12957;DHT22;6543;48.836;10.092;2024-03-02T14:40:00;13.30;99.90
12957;DHT22;6543;48.836;10.092;2024-03-02T14:42:31;13.30;99.90
12957;DHT22;6543;48.836;10.092;2024-03-02T14:45:12;13.20;99.90
12957;DHT22;6543;48.836;10.092;2024-03-02T14:47:39;13.10;99.90
12957;DHT22;6543;48.836;10.092;2024-03-02T14:50:07;15.50;99.90
12957;DHT22;6543;48.836;10.092;2024-03-02T14:52:35;13.10;99.90
12957;DHT22;6543;48.836;10.092;2024-03-02T14:55:02;13.20;99.90
12957;DHT22;6543;48.836;10.092;2024-03-02T14:57:34;13.20;99.90
12957;DHT22;6543;48.836;10.092;2024-03-02T15:00:01;13.10;99.90
12957;DHT22;6543;48.836;10.092;2024-03-02T15:02:29;13.10;99.90
12957;DHT22;6543;48.836;10.092;2024-03-02T15:04:58;13.10;99.90
12957;DHT22;6543;48.836;10.092;2024-03-02T15:07:26;13.00;99.90
12957;DHT22;6543;48.836;10.092;2024-03-02T15:09:53;12.90;99.90
12957;DHT22;6543;48.836;10.092;2024-03-02T15:12:20;12.90;99.90
12957;DHT22;6543;48.836;10.092;2024-03-02T15:14:50;13.00;99.90
12957;DHT22;6543;48.836;10.092;2024-03-02T15:17:16;12.90;99.90
12957;DHT22;6543;48.836;10.092;2024-03-02T15:19:44;12.90;99.90
12957;DHT22;6543;48.836;10.092;2024-03-02T15:22:11;12.90;99.90
12957;DHT22;6543;48.836;10.092;2024-03-02T15:24:38;12.90;99.90
12957;DHT22;6543;48.836;10.092;2024-03-02T15:27:06;12.80;99.90
12957;DHT22;6543;48.836;10.092;2024-03-02T15:29:34;12.90;99.90
12957;DHT22;6543;48.836;10.092;2024-03-02T15:32:03;12.80;99.90
12957;DHT22;6543;48.836;10.092;2024-03-02T15:34:32;12.70;99.90
12957;DHT22;6543;48.836;10.092;2024-03-02T15:36:59;12.70;99.90
12957;DHT22;6543;48.836;10.092;2024-03-02T15:39:26;12.50;99.90
12957;DHT22;6543;48.836;10.092;2024-03-02T15:41:53;12.50;99.90
12957;DHT22;6543;48.836;10.092;2024-03-02T15:44:20;12.50;99.90
12957;DHT22;6543;48.836;10.092;2024-03-02T15:46:47;12.50;99.90
12957;DHT22;6543;48.836;10.092;2024-03-02T15:49:15;12.50;99.90
12957;DHT22;6543;48.836;10.092;2024-03-02T15:51:42;12.40;99.90
12957;DHT22;6543;48.836;10.092;2024-03-02T15:54:09;12.40;99.90
12957;DHT22;6543;48.836;10.092;2024-03-02T15:56:36;12.40;99.90
12957;DHT22;6543;48.836;10.092;2024-03-02T15:59:04;12.40;99.90